createdAt,value
2019-01-06T00:00:39.787Z,15.68
2019-01-06T00:03:39.575Z,17.60
2019-01-06T00:06:44.215Z,16.50
2019-01-06T00:09:31.050Z,15.65
2019-01-06T00:12:15.561Z,16.50
2019-01-06T00:15:10.482Z,14.40
2019-01-06T00:17:58.727Z,15.10
2019-01-06T00:21:01.079Z,18.65
2019-01-06T00:24:14.223Z,17.85
2019-01-06T00:27:43.928Z,16.30
2019-01-06T00:30:41.425Z,16.75
2019-01-06T00:33:24.497Z,16.97
2019-01-06T00:36:24.207Z,16.15
2019-01-06T00:55:47.240Z,14.55
2019-01-06T00:58:35.618Z,15.28
2019-01-06T01:01:23.026Z,14.30
2019-01-06T01:04:16.336Z,19.40
2019-01-06T01:07:08.316Z,15.88
2019-01-06T01:13:27.966Z,15.10
2019-01-06T01:16:33.062Z,18.45
2019-01-06T01:19:18.273Z,15.68
2019-01-06T01:22:19.101Z,13.83
2019-01-06T01:36:52.553Z,15.55
2019-01-06T01:43:25.664Z,16.20
2019-01-06T01:46:39.943Z,14.35
2019-01-06T01:53:31.754Z,15.32
2019-01-06T01:56:42.779Z,13.35
2019-01-06T01:59:46.842Z,16.23
2019-01-06T02:02:34.732Z,14.90
2019-01-06T02:05:32.650Z,17.82
2019-01-06T02:08:27.043Z,17.67
2019-01-06T02:11:16.030Z,17.45
2019-01-06T02:14:27.144Z,17.75
2019-01-06T02:17:21.046Z,19.07
2019-01-06T02:23:39.089Z,19.50
2019-01-06T02:26:33.975Z,22.82
2019-01-06T02:33:39.079Z,18.20
2019-01-06T02:36:32.114Z,22.07
2019-01-06T02:39:30.163Z,21.75
2019-01-06T02:42:30.331Z,19.32
2019-01-06T02:45:27.046Z,20.35
2019-01-06T02:48:34.545Z,17.62
2019-01-06T02:51:35.192Z,18.98
2019-01-06T02:54:24.689Z,14.98
2019-01-06T02:57:15.114Z,22.45
2019-01-06T03:00:14.357Z,16.50
2019-01-06T03:03:01.190Z,21.87
2019-01-06T03:05:58.756Z,15.18
2019-01-06T03:08:45.671Z,18.12
2019-01-06T03:11:30.838Z,17.55
2019-01-06T03:14:17.745Z,20.55
2019-01-06T03:17:17.926Z,17.50
2019-01-06T03:20:14.336Z,18.82
2019-01-06T03:23:02.888Z,16.60
2019-01-06T03:25:50.250Z,19.25
2019-01-06T03:28:39.851Z,15.30
2019-01-06T03:31:43.923Z,17.75
2019-01-06T03:34:31.664Z,19.37
2019-01-06T03:37:18.368Z,16.25
2019-01-06T03:40:02.913Z,17.85
2019-01-06T03:42:55.511Z,18.32
2019-01-06T03:45:45.377Z,20.75
2019-01-06T03:49:02.066Z,22.00
2019-01-06T03:51:47.382Z,15.48
2019-01-06T03:54:42.016Z,19.00
2019-01-06T03:57:23.637Z,18.23
2019-01-06T04:00:14.946Z,21.30
2019-01-06T04:03:15.314Z,17.40
2019-01-06T04:06:02.523Z,22.65
2019-01-06T04:08:57.587Z,16.05
2019-01-06T04:11:55.022Z,18.23
2019-01-06T04:14:44.129Z,22.52
2019-01-06T04:17:55.227Z,19.25
2019-01-06T04:20:56.544Z,16.90
2019-01-06T04:24:05.699Z,20.43
2019-01-06T04:27:19.495Z,20.08
2019-01-06T04:30:50.926Z,15.20
2019-01-06T04:34:50.304Z,16.30
2019-01-06T04:45:15.771Z,20.27
2019-01-06T04:48:21.946Z,19.30
2019-01-06T04:54:21.176Z,23.18
2019-01-06T04:57:13.315Z,21.80
2019-01-06T05:00:21.829Z,21.17
2019-01-06T05:03:08.928Z,25.72
2019-01-06T05:05:53.702Z,23.60
2019-01-06T05:09:02.803Z,19.62
2019-01-06T05:11:48.788Z,19.95
2019-01-06T05:14:44.368Z,19.85
2019-01-06T05:17:32.683Z,20.43
2019-01-06T05:20:20.844Z,21.40
2019-01-06T05:23:22.125Z,19.62
2019-01-06T05:37:22.646Z,22.70
2019-01-06T05:43:56.675Z,20.95
2019-01-06T05:47:00.140Z,21.05
2019-01-06T06:13:45.888Z,19.12
2019-01-06T06:16:33.140Z,20.72
2019-01-06T06:19:29.056Z,24.90
2019-01-06T06:22:32.426Z,23.87
2019-01-06T06:25:19.015Z,21.35
2019-01-06T06:28:10.181Z,21.23
2019-01-06T06:30:56.914Z,20.45
2019-01-06T06:33:54.056Z,23.38
2019-01-06T06:36:57.057Z,21.75
2019-01-06T06:39:34.329Z,19.57
2019-01-06T06:42:22.953Z,25.10
2019-01-06T06:45:07.746Z,25.25
2019-01-06T06:48:05.141Z,24.40
2019-01-06T06:50:55.387Z,22.77
2019-01-06T06:53:47.192Z,21.62
2019-01-06T06:56:33.633Z,24.72
2019-01-06T06:59:20.140Z,23.12
2019-01-06T07:03:01.569Z,24.77
2019-01-06T07:05:50.364Z,22.48
2019-01-06T07:08:37.027Z,29.90
2019-01-06T07:11:25.300Z,25.75
2019-01-06T07:14:25.783Z,24.90
2019-01-06T07:17:55.739Z,28.30
2019-01-06T07:20:46.656Z,27.13
2019-01-06T07:23:33.719Z,28.20
2019-01-06T07:33:14.483Z,32.30
2019-01-06T07:36:05.448Z,26.87
2019-01-06T07:39:00.554Z,29.02
2019-01-06T07:41:47.151Z,30.12
2019-01-06T07:44:33.859Z,23.85
2019-01-06T07:47:24.739Z,28.42
2019-01-06T07:50:11.502Z,25.43
2019-01-06T07:52:58.353Z,29.02
2019-01-06T07:55:52.411Z,30.75
2019-01-06T07:58:46.667Z,31.45
2019-01-06T08:01:42.197Z,26.70
2019-01-06T08:04:36.275Z,26.05
2019-01-06T08:07:45.583Z,31.12
2019-01-06T08:10:34.066Z,26.97
2019-01-06T08:13:21.028Z,24.82
2019-01-06T08:16:14.451Z,29.15
2019-01-06T08:19:05.719Z,28.38
2019-01-06T08:21:57.185Z,32.33
2019-01-06T08:24:44.906Z,28.73
2019-01-06T08:28:18.232Z,29.90
2019-01-06T08:31:05.333Z,29.63
2019-01-06T08:33:56.194Z,32.28
2019-01-06T08:37:02.729Z,29.80
2019-01-06T08:40:09.220Z,23.47
2019-01-06T08:43:28.261Z,29.07
2019-01-06T09:16:55.174Z,30.45
2019-01-06T09:19:49.996Z,31.27
2019-01-06T09:23:00.233Z,26.80
2019-01-06T09:54:13.109Z,25.57
2019-01-06T10:00:53.068Z,17.02
2019-01-06T10:03:39.848Z,21.42
2019-01-06T10:06:43.344Z,21.12
2019-01-06T10:09:30.435Z,23.27
2019-01-06T10:12:47.620Z,18.20
2019-01-06T10:18:47.180Z,20.27
2019-01-06T10:21:35.313Z,23.47
2019-01-06T10:24:23.500Z,21.23
2019-01-06T10:27:09.864Z,23.30
2019-01-06T10:30:13.354Z,15.38
2019-01-06T10:33:01.825Z,12.65
2019-01-06T10:35:48.403Z,8.73
2019-01-06T10:38:35.176Z,14.13
2019-01-06T10:41:21.960Z,10.30
2019-01-06T10:44:12.890Z,10.63
2019-01-06T10:47:15.365Z,11.28
2019-01-06T10:50:05.680Z,11.35
2019-01-06T10:58:56.497Z,9.28
2019-01-06T11:05:02.060Z,8.43
2019-01-06T11:08:02.592Z,6.65
2019-01-06T11:13:54.749Z,10.30
2019-01-06T11:32:00.880Z,13.05
2019-01-06T11:39:22.473Z,13.20
2019-01-06T11:46:03.627Z,15.32
2019-01-06T12:03:42.345Z,13.72
2019-01-06T12:07:04.030Z,15.25
2019-01-06T12:10:27.161Z,16.97
2019-01-06T12:13:13.179Z,13.40
2019-01-06T12:19:33.692Z,17.42
2019-01-06T12:22:43.548Z,14.40
2019-01-06T12:25:49.268Z,12.07
2019-01-06T12:29:15.822Z,15.40
2019-01-06T12:32:07.456Z,15.00
2019-01-06T12:38:51.711Z,16.23
2019-01-06T12:41:39.913Z,14.60
2019-01-06T12:44:27.259Z,13.35
2019-01-06T12:47:17.162Z,17.60
2019-01-06T12:53:21.260Z,20.40
2019-01-06T13:03:53.393Z,16.37
2019-01-06T13:10:22.496Z,16.37
2019-01-06T13:13:46.619Z,18.42
2019-01-06T13:17:01.434Z,16.02
2019-01-06T13:20:12.283Z,13.72
2019-01-06T13:23:54.613Z,18.00
2019-01-06T13:26:46.098Z,14.33
2019-01-06T13:29:36.439Z,11.00
2019-01-06T13:32:40.017Z,10.90
2019-01-06T13:35:40.842Z,11.78
2019-01-06T13:38:38.495Z,12.60
2019-01-06T13:41:45.098Z,13.90
2019-01-06T13:45:28.845Z,16.23
2019-01-06T13:48:19.749Z,15.88
2019-01-06T13:51:14.392Z,14.43
2019-01-06T13:54:00.832Z,15.25
2019-01-06T13:56:58.135Z,13.90
2019-01-06T13:59:46.253Z,13.80
2019-01-06T14:02:36.305Z,14.00
2019-01-06T14:05:30.564Z,13.55
2019-01-06T14:08:28.665Z,11.35
2019-01-06T14:11:16.360Z,10.85
2019-01-06T14:14:11.423Z,12.37
2019-01-06T14:17:32.561Z,14.10
2019-01-06T14:20:19.513Z,14.73
2019-01-06T14:23:06.545Z,11.63
2019-01-06T14:25:56.325Z,12.90
2019-01-06T14:33:21.772Z,12.85
2019-01-06T14:36:43.967Z,14.07
2019-01-06T14:46:44.597Z,16.20
2019-01-06T14:49:58.652Z,14.90
2019-01-06T14:53:54.313Z,14.73
2019-01-06T15:01:13.829Z,17.27
2019-01-06T15:16:19.558Z,17.10
2019-01-06T15:30:27.534Z,20.65
2019-01-06T15:36:18.092Z,23.67
2019-01-06T15:39:37.666Z,17.30
2019-01-06T15:43:04.553Z,19.85
2019-01-06T15:46:13.376Z,16.85
2019-01-06T15:49:20.322Z,17.40
2019-01-06T15:52:11.730Z,19.82
2019-01-06T15:54:58.299Z,15.80
2019-01-06T15:57:46.524Z,14.70
2019-01-06T16:03:51.980Z,17.52
2019-01-06T16:10:35.112Z,14.38
2019-01-06T16:14:39.365Z,14.83
2019-01-06T16:17:53.497Z,21.15
2019-01-06T16:20:43.496Z,15.18
2019-01-06T16:23:44.127Z,17.25
2019-01-06T16:26:57.356Z,10.25
2019-01-06T16:33:58.701Z,15.80
2019-01-06T16:37:08.993Z,8.28
2019-01-06T16:39:58.473Z,10.78
2019-01-06T16:42:45.501Z,12.25
2019-01-06T16:45:51.494Z,5.87
2019-01-06T16:48:38.507Z,9.05
2019-01-06T16:51:45.227Z,7.67
2019-01-06T16:54:54.346Z,7.40
2019-01-06T16:57:43.026Z,13.90
2019-01-06T17:00:53.694Z,4.10
2019-01-06T17:03:41.752Z,7.70
2019-01-06T17:06:36.295Z,6.95
2019-01-06T17:09:24.778Z,4.03
2019-01-06T17:12:27.708Z,4.08
2019-01-06T17:15:18.604Z,6.12
2019-01-06T17:18:07.625Z,7.12
2019-01-06T17:20:58.800Z,6.55
2019-01-06T17:23:47.744Z,4.50
2019-01-06T17:26:39.006Z,5.42
2019-01-06T17:29:26.191Z,6.08
2019-01-06T17:32:23.455Z,4.33
2019-01-06T17:35:15.368Z,5.90
2019-01-06T17:38:06.688Z,7.90
2019-01-06T17:41:20.700Z,7.15
2019-01-06T17:44:40.730Z,8.05
2019-01-06T18:03:20.506Z,10.00
2019-01-06T19:02:04.548Z,20.02
2019-01-06T19:57:57.690Z,19.85
2019-01-06T20:31:32.642Z,21.23
2019-01-06T20:34:19.692Z,24.45
2019-01-06T20:37:10.849Z,17.45
2019-01-06T20:39:54.480Z,25.10
2019-01-06T20:42:48.316Z,18.95
2019-01-06T20:45:39.927Z,16.07
2019-01-06T20:48:28.486Z,22.10
2019-01-06T20:51:48.480Z,18.98
2019-01-06T20:54:26.482Z,22.17
2019-01-06T20:57:30.814Z,17.02
2019-01-06T21:00:12.140Z,15.45
2019-01-06T21:03:08.542Z,17.35
2019-01-06T21:05:59.592Z,13.90
2019-01-06T21:08:48.100Z,21.12
2019-01-06T21:11:35.017Z,18.65
2019-01-06T21:14:30.218Z,19.62
2019-01-06T21:17:17.429Z,24.45
2019-01-06T21:20:19.702Z,18.87
2019-01-06T21:23:09.660Z,15.58
2019-01-06T21:26:01.265Z,26.90
2019-01-06T21:28:51.541Z,15.38
2019-01-06T21:31:51.874Z,14.35
2019-01-06T21:34:38.429Z,23.02
2019-01-06T21:37:29.701Z,16.05
2019-01-06T21:40:17.795Z,16.55
2019-01-06T21:43:42.954Z,15.60
2019-01-06T21:52:37.536Z,16.90
2019-01-06T21:55:42.936Z,19.87
2019-01-06T22:02:51.568Z,14.90
2019-01-06T22:13:32.277Z,9.38
2019-01-06T22:28:05.275Z,23.57
2019-01-06T22:38:02.102Z,14.00
2019-01-06T22:40:41.646Z,15.53
2019-01-06T22:43:36.044Z,21.35
2019-01-06T22:49:47.725Z,26.87
2019-01-06T22:52:36.766Z,18.90
2019-01-06T22:55:38.555Z,15.43
2019-01-06T22:59:08.319Z,12.60
2019-01-06T23:02:44.179Z,13.10
2019-01-06T23:05:31.956Z,14.68
2019-01-06T23:08:22.973Z,12.25
2019-01-06T23:11:39.559Z,14.93
2019-01-06T23:14:26.532Z,14.83
2019-01-06T23:20:47.957Z,18.05
2019-01-06T23:23:42.699Z,15.25
2019-01-06T23:27:34.351Z,12.53
2019-01-06T23:30:15.643Z,17.02
2019-01-06T23:33:13.908Z,17.98
2019-01-06T23:36:07.842Z,11.78
2019-01-06T23:38:58.866Z,18.95
2019-01-06T23:41:45.176Z,21.07
2019-01-06T23:44:31.550Z,21.48
2019-01-06T23:47:17.943Z,14.35
2019-01-06T23:49:53.400Z,19.80
2019-01-06T23:52:41.563Z,21.42
2019-01-06T23:55:28.309Z,17.45
2019-01-06T23:58:16.646Z,11.15
